createdAt,value
2017-01-25T00:00:32.797Z,1019.48
2017-01-25T00:01:42.080Z,1019.45
2017-01-25T00:02:52.237Z,1019.45
2017-01-25T00:04:01.957Z,1019.51
2017-01-25T00:05:11.288Z,1019.45
2017-01-25T00:06:21.438Z,1019.46
2017-01-25T00:07:30.711Z,1019.48
2017-01-25T00:08:41.303Z,1019.5
2017-01-25T00:09:51.016Z,1019.53
2017-01-25T00:11:01.223Z,1019.47
2017-01-25T00:12:11.820Z,1019.45
2017-01-25T00:13:21.540Z,1019.48
2017-01-25T00:14:30.825Z,1019.44
2017-01-25T00:15:40.978Z,1019.44
2017-01-25T00:16:51.191Z,1019.46
2017-01-25T00:18:01.345Z,1019.48
2017-01-25T00:19:11.498Z,1019.47
2017-01-25T00:20:21.651Z,1019.5
2017-01-25T00:21:31.364Z,1019.5
2017-01-25T00:22:41.161Z,1019.49
2017-01-25T00:23:50.886Z,1019.54
2017-01-25T00:25:00.600Z,1019.57
2017-01-25T00:26:10.757Z,1019.58
2017-01-25T00:27:20.475Z,1019.52
2017-01-25T00:28:30.240Z,1019.59
2017-01-25T00:29:39.952Z,1019.57
2017-01-25T00:30:49.669Z,1019.54
2017-01-25T00:31:59.383Z,1019.5
2017-01-25T00:33:09.535Z,1019.48
2017-01-25T00:34:19.307Z,1019.5
2017-01-25T00:35:29.490Z,1019.49
2017-01-25T00:36:39.215Z,1019.5
2017-01-25T00:37:48.929Z,1019.43
2017-01-25T00:38:58.645Z,1019.45
2017-01-25T00:40:07.978Z,1019.48
2017-01-25T00:41:17.252Z,1019.45
2017-01-25T00:42:27.841Z,1019.44
2017-01-25T00:43:37.550Z,1019.43
2017-01-25T00:44:46.827Z,1019.44
2017-01-25T00:45:56.596Z,1019.42
2017-01-25T00:47:06.745Z,1019.43
2017-01-25T00:48:17.342Z,1019.38
2017-01-25T00:49:27.496Z,1019.41
2017-01-25T00:50:36.801Z,1019.39
2017-01-25T00:51:47.002Z,1019.43
2017-01-25T00:52:57.595Z,1019.35
2017-01-25T00:54:07.309Z,1019.37
2017-01-25T00:55:17.050Z,1019.31
2017-01-25T00:56:27.654Z,1019.33
2017-01-25T00:57:36.980Z,1019.33
2017-01-25T00:58:46.256Z,1019.35
2017-01-25T00:59:55.534Z,1019.29
2017-01-25T01:01:06.124Z,1019.31
2017-01-25T01:02:16.713Z,1019.3
2017-01-25T01:03:26.478Z,1019.28
2017-01-25T01:04:35.786Z,1019.27
2017-01-25T01:05:45.940Z,1019.27
2017-01-25T01:06:55.217Z,1019.26
2017-01-25T01:08:04.930Z,1019.21
2017-01-25T01:09:15.572Z,1019.23
2017-01-25T01:10:24.857Z,1019.26
2017-01-25T01:11:35.450Z,1019.3
2017-01-25T01:12:45.171Z,1019.32
2017-01-25T01:13:55.325Z,1019.3
2017-01-25T01:15:05.970Z,1019.3
2017-01-25T01:16:15.691Z,1019.31
2017-01-25T01:17:25.843Z,1019.35
2017-01-25T01:18:35.566Z,1019.4
2017-01-25T01:19:44.842Z,1019.39
2017-01-25T01:20:54.740Z,1019.41
2017-01-25T01:22:04.893Z,1019.43
2017-01-25T01:23:15.481Z,1019.39
2017-01-25T01:24:24.755Z,1019.42
2017-01-25T01:25:34.908Z,1019.43
2017-01-25T01:26:45.550Z,1019.47
2017-01-25T01:27:55.279Z,1019.44
2017-01-25T01:29:05.872Z,1019.43
2017-01-25T01:30:16.461Z,1019.43
2017-01-25T01:31:26.218Z,1019.39
2017-01-25T01:32:36.864Z,1019.44
2017-01-25T01:33:47.020Z,1019.47
2017-01-25T01:34:56.729Z,1019.52
2017-01-25T01:36:07.330Z,1019.54
2017-01-25T01:37:17.488Z,1019.56
2017-01-25T01:38:27.693Z,1019.59
2017-01-25T01:39:37.422Z,1019.6
2017-01-25T01:40:47.580Z,1019.66
2017-01-25T01:41:57.725Z,1019.65
2017-01-25T01:43:07.442Z,1019.63
2017-01-25T01:44:17.643Z,1019.59
2017-01-25T01:45:27.798Z,1019.62
2017-01-25T01:46:37.509Z,1019.61
2017-01-25T01:47:47.662Z,1019.66
2017-01-25T01:48:57.816Z,1019.64
2017-01-25T01:50:07.580Z,1019.72
2017-01-25T01:51:17.754Z,1019.76
2017-01-25T01:52:27.913Z,1019.75
2017-01-25T01:53:38.060Z,1019.69
2017-01-25T01:54:47.337Z,1019.7
2017-01-25T01:55:57.979Z,1019.73
2017-01-25T01:57:07.259Z,1019.74
2017-01-25T01:58:16.976Z,1019.71
2017-01-25T01:59:26.697Z,1019.73
2017-01-25T02:00:36.416Z,1019.72
2017-01-25T02:01:46.181Z,1019.71
2017-01-25T02:02:55.893Z,1019.72
2017-01-25T02:04:05.615Z,1019.73
2017-01-25T02:05:15.332Z,1019.72
2017-01-25T02:06:25.480Z,1019.73
2017-01-25T02:07:35.691Z,1019.77
2017-01-25T02:08:44.964Z,1019.76
2017-01-25T02:09:54.677Z,1019.78
2017-01-25T02:11:03.958Z,1019.74
2017-01-25T02:12:13.671Z,1019.72
2017-01-25T02:13:23.432Z,1019.73
2017-01-25T02:14:32.713Z,1019.75
2017-01-25T02:15:41.998Z,1019.77
2017-01-25T02:16:51.716Z,1019.73
2017-01-25T02:18:01.453Z,1019.72
2017-01-25T02:19:12.093Z,1019.7
2017-01-25T02:20:21.810Z,1019.75
2017-01-25T02:21:31.525Z,1019.74
2017-01-25T02:22:40.822Z,1019.73
2017-01-25T02:23:50.530Z,1019.74
2017-01-25T02:25:00.297Z,1019.75
2017-01-25T02:26:10.013Z,1019.75
2017-01-25T02:27:19.295Z,1019.67
2017-01-25T02:28:29.444Z,1019.65
2017-01-25T02:29:40.036Z,1019.64
2017-01-25T02:30:49.802Z,1019.64
2017-01-25T02:31:59.518Z,1019.63
2017-01-25T02:33:09.244Z,1019.65
2017-01-25T02:34:18.982Z,1019.61
2017-01-25T02:35:29.142Z,1019.57
2017-01-25T02:36:38.476Z,1019.58
2017-01-25T02:37:47.753Z,1019.57
2017-01-25T02:38:57.926Z,1019.57
2017-01-25T02:40:07.647Z,1019.56
2017-01-25T02:41:17.364Z,1019.54
2017-01-25T02:42:27.126Z,1019.51
2017-01-25T02:43:37.302Z,1019.53
2017-01-25T02:44:47.012Z,1019.52
2017-01-25T02:45:56.729Z,1019.52
2017-01-25T02:47:06.446Z,1019.52
2017-01-25T02:48:16.652Z,1019.55
2017-01-25T02:49:26.800Z,1019.56
2017-01-25T02:50:36.955Z,1019.57
2017-01-25T02:51:46.676Z,1019.61
2017-01-25T02:52:56.828Z,1019.57
2017-01-25T02:54:07.061Z,1019.56
2017-01-25T02:55:16.339Z,1019.55
2017-01-25T02:56:26.491Z,1019.54
2017-01-25T02:57:37.080Z,1019.55
2017-01-25T02:58:47.243Z,1019.57
2017-01-25T02:59:56.567Z,1019.52
2017-01-25T03:01:06.720Z,1019.5
2017-01-25T03:02:16.877Z,1019.48
2017-01-25T03:03:26.631Z,1019.5
2017-01-25T03:04:37.223Z,1019.55
2017-01-25T03:05:46.984Z,1019.55
2017-01-25T03:06:56.706Z,1019.54
2017-01-25T03:08:06.427Z,1019.52
2017-01-25T03:09:16.576Z,1019.49
2017-01-25T03:10:26.726Z,1019.5
2017-01-25T03:11:36.931Z,1019.44
2017-01-25T03:12:46.208Z,1019.46
2017-01-25T03:13:56.362Z,1019.47
2017-01-25T03:15:06.517Z,1019.43
2017-01-25T03:16:17.140Z,1019.47
2017-01-25T03:17:26.908Z,1019.46
2017-01-25T03:18:37.058Z,1019.48
2017-01-25T03:19:47.207Z,1019.48
2017-01-25T03:20:57.799Z,1019.51
2017-01-25T03:22:08.392Z,1019.53
2017-01-25T03:23:18.162Z,1019.46
2017-01-25T03:24:27.439Z,1019.45
2017-01-25T03:25:36.721Z,1019.44
2017-01-25T03:26:47.759Z,1019.44
2017-01-25T03:27:58.359Z,1019.47
2017-01-25T03:29:08.580Z,1019.46
2017-01-25T03:30:18.729Z,1019.48
2017-01-25T03:31:28.039Z,1019.5
2017-01-25T03:32:38.187Z,1019.52
2017-01-25T03:33:47.901Z,1019.49
2017-01-25T03:34:57.667Z,1019.51
2017-01-25T03:36:07.378Z,1019.55
2017-01-25T03:37:17.100Z,1019.53
2017-01-25T03:38:26.814Z,1019.55
2017-01-25T03:39:36.535Z,1019.53
2017-01-25T03:40:46.296Z,1019.47
2017-01-25T03:41:56.445Z,1019.43
2017-01-25T03:43:06.163Z,1019.41
2017-01-25T03:44:16.755Z,1019.35
2017-01-25T03:45:26.476Z,1019.35
2017-01-25T03:46:36.246Z,1019.32
2017-01-25T03:47:45.962Z,1019.33
2017-01-25T03:48:55.676Z,1019.36
2017-01-25T03:50:05.829Z,1019.42
2017-01-25T03:51:15.987Z,1019.43
2017-01-25T03:52:25.748Z,1019.45
2017-01-25T03:53:36.336Z,1019.46
2017-01-25T03:54:45.618Z,1019.49
2017-01-25T03:55:55.776Z,1019.43
2017-01-25T03:57:05.496Z,1019.46
2017-01-25T03:58:14.828Z,1019.5
2017-01-25T03:59:24.983Z,1019.54
2017-01-25T04:00:34.696Z,1019.57
2017-01-25T04:01:44.417Z,1019.61
2017-01-25T04:02:54.129Z,1019.63
2017-01-25T04:04:03.923Z,1019.62
2017-01-25T04:05:13.645Z,1019.59
2017-01-25T04:06:23.793Z,1019.55
2017-01-25T04:07:33.954Z,1019.55
2017-01-25T04:08:43.674Z,1019.53
2017-01-25T04:09:54.315Z,1019.53
2017-01-25T04:11:04.030Z,1019.54
2017-01-25T04:12:14.183Z,1019.46
2017-01-25T04:13:24.340Z,1019.47
2017-01-25T04:14:33.618Z,1019.45
2017-01-25T04:15:42.947Z,1019.48
2017-01-25T04:16:53.096Z,1019.51
2017-01-25T04:18:02.378Z,1019.52
2017-01-25T04:19:12.099Z,1019.55
2017-01-25T04:20:22.691Z,1019.55
2017-01-25T04:21:32.021Z,1019.6
2017-01-25T04:22:41.738Z,1019.55
2017-01-25T04:23:51.907Z,1019.5
2017-01-25T04:25:01.620Z,1019.47
2017-01-25T04:26:10.901Z,1019.49
2017-01-25T04:27:21.098Z,1019.54
2017-01-25T04:28:31.263Z,1019.59
2017-01-25T04:29:40.536Z,1019.62
2017-01-25T04:30:50.698Z,1019.65
2017-01-25T04:32:00.415Z,1019.69
2017-01-25T04:33:09.748Z,1019.73
2017-01-25T04:34:20.349Z,1019.77
2017-01-25T04:35:30.063Z,1019.8
2017-01-25T04:36:39.778Z,1019.81
2017-01-25T04:37:49.932Z,1019.82
2017-01-25T04:38:59.269Z,1019.78
2017-01-25T04:40:09.427Z,1019.74
2017-01-25T04:41:19.185Z,1019.78
2017-01-25T04:42:30.214Z,1019.73
2017-01-25T04:43:40.374Z,1019.77
2017-01-25T04:44:50.676Z,1019.77
2017-01-25T04:45:59.954Z,1019.78
2017-01-25T04:47:10.130Z,1019.79
2017-01-25T04:48:20.279Z,1019.79
2017-01-25T04:49:30.873Z,1019.83
2017-01-25T04:50:41.069Z,1019.83
2017-01-25T04:51:51.223Z,1019.92
2017-01-25T04:53:01.376Z,1019.94
2017-01-25T04:54:11.099Z,1019.98
2017-01-25T04:55:21.254Z,1020
2017-01-25T04:56:31.890Z,1019.98
2017-01-25T04:57:41.608Z,1019.98
2017-01-25T04:58:50.882Z,1019.91
2017-01-25T05:00:00.599Z,1019.92
2017-01-25T05:01:10.767Z,1019.95
2017-01-25T05:02:20.097Z,1020.01
2017-01-25T05:03:29.377Z,1020.05
2017-01-25T05:04:39.531Z,1020.04
2017-01-25T05:05:48.808Z,1020.03
2017-01-25T05:06:58.521Z,1020.07
2017-01-25T05:08:08.291Z,1020.07
2017-01-25T05:09:18.008Z,1020.09
2017-01-25T05:10:27.729Z,1020.14
2017-01-25T05:11:37.884Z,1020.13
2017-01-25T05:12:47.600Z,1020.1
2017-01-25T05:13:57.376Z,1020.1
2017-01-25T05:15:07.094Z,1020.11
2017-01-25T05:16:16.803Z,1020.05
2017-01-25T05:17:27.422Z,1020.05
2017-01-25T05:18:37.580Z,1020.05
2017-01-25T05:19:46.948Z,1020.03
2017-01-25T05:20:56.664Z,1020.07
2017-01-25T05:22:06.820Z,1020.09
2017-01-25T05:23:16.974Z,1020.1
2017-01-25T05:24:26.687Z,1020.09
2017-01-25T05:25:37.337Z,1020.07
2017-01-25T05:26:47.486Z,1020.05
2017-01-25T05:27:56.763Z,1020.03
2017-01-25T05:29:06.476Z,1020.01
2017-01-25T05:30:16.192Z,1020.03
2017-01-25T05:31:25.995Z,1020.05
2017-01-25T05:32:36.147Z,1020.02
2017-01-25T05:33:46.737Z,1020
2017-01-25T05:34:56.453Z,1020
2017-01-25T05:36:05.730Z,1020.03
2017-01-25T05:37:16.140Z,1020.06
2017-01-25T05:38:25.454Z,1020.09
2017-01-25T05:39:35.606Z,1020.08
2017-01-25T05:40:45.758Z,1020.07
2017-01-25T05:41:56.352Z,1020.04
2017-01-25T05:43:06.557Z,1020.12
2017-01-25T05:44:16.270Z,1020.13
2017-01-25T05:45:26.419Z,1020.12
2017-01-25T05:46:36.132Z,1020.19
2017-01-25T05:47:46.285Z,1020.21
2017-01-25T05:48:56.925Z,1020.19
2017-01-25T05:50:06.204Z,1020.13
2017-01-25T05:51:16.804Z,1020.17
2017-01-25T05:52:26.522Z,1020.15
2017-01-25T05:53:36.671Z,1020.19
2017-01-25T05:54:46.880Z,1020.22
2017-01-25T05:55:57.062Z,1020.21
2017-01-25T05:57:06.783Z,1020.21
2017-01-25T05:58:16.936Z,1020.2
2017-01-25T05:59:26.657Z,1020.23
2017-01-25T06:00:37.013Z,1020.22
2017-01-25T06:01:46.291Z,1020.22
2017-01-25T06:02:56.010Z,1020.24
2017-01-25T06:04:06.162Z,1020.25
2017-01-25T06:05:16.315Z,1020.27
2017-01-25T06:06:26.117Z,1020.27
2017-01-25T06:07:35.837Z,1020.32
2017-01-25T06:08:45.552Z,1020.31
2017-01-25T06:09:55.707Z,1020.32
2017-01-25T06:11:05.424Z,1020.33
2017-01-25T06:12:16.066Z,1020.28
2017-01-25T06:13:26.215Z,1020.28
2017-01-25T06:14:35.928Z,1020.26
2017-01-25T06:15:46.082Z,1020.22
2017-01-25T06:16:55.797Z,1020.24
2017-01-25T06:18:05.560Z,1020.2
2017-01-25T06:19:15.280Z,1020.21
2017-01-25T06:20:26.306Z,1020.22
2017-01-25T06:21:36.459Z,1020.22
2017-01-25T06:22:46.612Z,1020.18
2017-01-25T06:23:56.382Z,1020.21
2017-01-25T06:25:05.656Z,1020.2
2017-01-25T06:26:15.368Z,1020.23
2017-01-25T06:27:25.969Z,1020.24
2017-01-25T06:28:36.123Z,1020.22
2017-01-25T06:29:47.211Z,1020.16
2017-01-25T06:30:56.924Z,1020.13
2017-01-25T06:32:06.642Z,1020.11
2017-01-25T06:33:16.790Z,1020.16
2017-01-25T06:34:26.940Z,1020.17
2017-01-25T06:35:36.705Z,1020.13
2017-01-25T06:36:47.291Z,1020.15
2017-01-25T06:37:57.447Z,1020.17
2017-01-25T06:39:07.164Z,1020.18
2017-01-25T06:40:16.878Z,1020.2
2017-01-25T06:41:26.635Z,1020.24
2017-01-25T06:42:36.356Z,1020.26
2017-01-25T06:43:46.509Z,1020.25
2017-01-25T06:44:56.659Z,1020.28
2017-01-25T06:46:07.256Z,1020.31
2017-01-25T06:47:17.461Z,1020.34
2017-01-25T06:48:26.749Z,1020.36
2017-01-25T06:49:36.475Z,1020.42
2017-01-25T06:50:46.624Z,1020.41
2017-01-25T06:51:56.782Z,1020.4
2017-01-25T06:53:07.426Z,1020.4
2017-01-25T06:54:17.144Z,1020.37
2017-01-25T06:55:26.860Z,1020.42
2017-01-25T06:56:36.574Z,1020.4
2017-01-25T06:57:45.851Z,1020.39
2017-01-25T06:58:55.621Z,1020.4
2017-01-25T07:00:05.773Z,1020.37
2017-01-25T07:01:16.367Z,1020.34
2017-01-25T07:02:26.084Z,1020.29
2017-01-25T07:03:35.793Z,1020.3
2017-01-25T07:04:46.002Z,1020.29
2017-01-25T07:05:56.159Z,1020.25
2017-01-25T07:07:05.874Z,1020.23
2017-01-25T07:08:16.018Z,1020.3
2017-01-25T07:09:25.784Z,1020.31
2017-01-25T07:10:36.444Z,1020.28
2017-01-25T07:11:46.165Z,1020.28
2017-01-25T07:12:56.311Z,1020.28
2017-01-25T07:14:06.472Z,1020.26
2017-01-25T07:15:16.189Z,1020.24
2017-01-25T07:16:25.953Z,1020.24
2017-01-25T07:17:35.672Z,1020.23
2017-01-25T07:18:44.948Z,1020.23
2017-01-25T07:19:54.666Z,1020.23
2017-01-25T07:21:04.823Z,1020.29
2017-01-25T07:22:15.468Z,1020.29
2017-01-25T07:23:25.186Z,1020.27
2017-01-25T07:24:34.895Z,1020.25
2017-01-25T07:25:44.612Z,1020.27
2017-01-25T07:26:55.637Z,1020.25
2017-01-25T07:28:05.842Z,1020.22
2017-01-25T07:29:15.991Z,1020.23
2017-01-25T07:30:26.145Z,1020.22
2017-01-25T07:31:36.334Z,1020.22
2017-01-25T07:32:46.054Z,1020.19
2017-01-25T07:33:55.836Z,1020.24
2017-01-25T07:35:05.120Z,1020.18
2017-01-25T07:36:14.403Z,1020.25
2017-01-25T07:37:24.561Z,1020.24
2017-01-25T07:38:34.708Z,1020.24
2017-01-25T07:39:44.914Z,1020.21
2017-01-25T07:40:54.191Z,1020.16
2017-01-25T07:42:03.905Z,1020.17
2017-01-25T07:43:13.629Z,1020.16
2017-01-25T07:44:22.906Z,1020.13
2017-01-25T07:45:32.236Z,1020.12
2017-01-25T07:46:42.398Z,1020.19
2017-01-25T07:47:51.695Z,1020.18
2017-01-25T07:49:01.847Z,1020.21
2017-01-25T07:50:11.561Z,1020.23
2017-01-25T07:51:20.886Z,1020.31
2017-01-25T07:52:30.159Z,1020.31
2017-01-25T07:53:40.755Z,1020.31
2017-01-25T07:54:51.789Z,1020.33
2017-01-25T07:56:02.383Z,1020.33
2017-01-25T07:57:13.023Z,1020.32
2017-01-25T07:58:23.169Z,1020.34
2017-01-25T07:59:32.454Z,1020.4
2017-01-25T08:00:42.611Z,1020.43
2017-01-25T08:01:52.328Z,1020.39
2017-01-25T08:03:02.098Z,1020.36
2017-01-25T08:04:11.807Z,1020.32
2017-01-25T08:05:21.960Z,1020.35
2017-01-25T08:06:32.132Z,1020.35
2017-01-25T08:07:42.290Z,1020.36
2017-01-25T08:08:52.055Z,1020.38
2017-01-25T08:10:02.213Z,1020.4
2017-01-25T08:11:11.945Z,1020.46
2017-01-25T08:12:22.095Z,1020.5
2017-01-25T08:13:31.808Z,1020.48
2017-01-25T08:14:41.578Z,1020.49
2017-01-25T08:15:51.302Z,1020.44
2017-01-25T08:17:01.901Z,1020.42
2017-01-25T08:18:12.060Z,1020.44
2017-01-25T08:19:22.214Z,1020.46
2017-01-25T08:20:32.522Z,1020.44
2017-01-25T08:21:42.680Z,1020.44
2017-01-25T08:22:52.833Z,1020.48
2017-01-25T08:24:02.979Z,1020.44
2017-01-25T08:25:13.127Z,1020.45
2017-01-25T08:26:23.324Z,1020.45
2017-01-25T08:27:32.602Z,1020.48
2017-01-25T08:28:41.879Z,1020.48
2017-01-25T08:29:52.475Z,1020.5
2017-01-25T08:31:03.069Z,1020.6
2017-01-25T08:32:13.270Z,1020.58
2017-01-25T08:33:22.979Z,1020.61
2017-01-25T08:34:32.696Z,1020.52
2017-01-25T08:35:43.281Z,1020.54
2017-01-25T08:36:53.442Z,1020.58
2017-01-25T08:38:03.215Z,1020.55
2017-01-25T08:39:12.931Z,1020.56
2017-01-25T08:40:22.658Z,1020.52
2017-01-25T08:41:32.370Z,1020.56
2017-01-25T08:42:42.530Z,1020.63
2017-01-25T08:43:51.857Z,1020.66
2017-01-25T08:45:02.039Z,1020.67
2017-01-25T08:46:11.325Z,1020.61
2017-01-25T08:47:21.040Z,1020.66
2017-01-25T08:48:30.757Z,1020.63
2017-01-25T08:49:40.963Z,1020.66
2017-01-25T08:50:51.556Z,1020.61
2017-01-25T08:52:01.273Z,1020.64
2017-01-25T08:53:10.985Z,1020.65
2017-01-25T08:54:20.699Z,1020.59
2017-01-25T08:55:30.905Z,1020.65
2017-01-25T08:56:40.622Z,1020.63
2017-01-25T08:57:50.331Z,1020.58
2017-01-25T08:59:00.486Z,1020.6
2017-01-25T09:00:11.087Z,1020.62
2017-01-25T09:01:20.854Z,1020.67
2017-01-25T09:02:30.131Z,1020.67
2017-01-25T09:03:39.412Z,1020.67
2017-01-25T09:04:49.570Z,1020.72
2017-01-25T09:05:59.723Z,1020.71
2017-01-25T09:07:09.488Z,1020.72
2017-01-25T09:08:19.220Z,1020.74
2017-01-25T09:09:29.372Z,1020.75
2017-01-25T09:10:39.523Z,1020.73
2017-01-25T09:11:49.245Z,1020.73
2017-01-25T09:12:59.446Z,1020.74
2017-01-25T09:14:10.040Z,1020.71
2017-01-25T09:15:20.219Z,1020.73
2017-01-25T09:16:30.819Z,1020.78
2017-01-25T09:17:40.535Z,1020.79
2017-01-25T09:18:50.304Z,1020.82
2017-01-25T09:20:00.465Z,1020.82
2017-01-25T09:21:10.187Z,1020.83
2017-01-25T09:22:19.468Z,1020.8
2017-01-25T09:23:28.753Z,1020.87
2017-01-25T09:24:38.953Z,1020.84
2017-01-25T09:25:49.107Z,1020.84
2017-01-25T09:26:58.825Z,1020.88
2017-01-25T09:28:09.417Z,1020.85
2017-01-25T09:29:19.575Z,1020.84
2017-01-25T09:30:30.242Z,1020.83
2017-01-25T09:31:40.396Z,1020.86
2017-01-25T09:32:50.546Z,1020.87
2017-01-25T09:34:00.283Z,1020.9
2017-01-25T09:35:10.884Z,1020.91
2017-01-25T09:36:20.654Z,1020.89
2017-01-25T09:37:30.378Z,1020.91
2017-01-25T09:38:40.965Z,1020.98
2017-01-25T09:39:51.125Z,1021
2017-01-25T09:41:00.871Z,1020.99
2017-01-25T09:42:10.635Z,1020.94
2017-01-25T09:43:20.809Z,1020.99
2017-01-25T09:44:30.093Z,1021.03
2017-01-25T09:45:40.256Z,1020.94
2017-01-25T09:46:49.969Z,1020.95
2017-01-25T09:47:59.740Z,1020.96
2017-01-25T09:49:09.894Z,1020.94
2017-01-25T09:50:19.176Z,1020.96
2017-01-25T09:51:29.345Z,1020.91
2017-01-25T09:52:39.059Z,1020.91
2017-01-25T09:53:48.832Z,1020.91
2017-01-25T09:54:58.546Z,1020.92
2017-01-25T09:56:08.695Z,1020.92
2017-01-25T09:57:18.851Z,1020.86
2017-01-25T09:58:28.133Z,1020.85
2017-01-25T09:59:37.905Z,1020.89
2017-01-25T10:00:48.059Z,1020.85
2017-01-25T10:01:57.776Z,1020.88
2017-01-25T10:03:07.930Z,1020.77
2017-01-25T10:04:18.082Z,1020.8
2017-01-25T10:05:27.419Z,1020.8
2017-01-25T10:06:37.152Z,1020.76
2017-01-25T10:07:46.429Z,1020.71
2017-01-25T10:08:56.584Z,1020.69
2017-01-25T10:10:06.732Z,1020.7
2017-01-25T10:11:16.602Z,1020.71
2017-01-25T10:12:26.319Z,1020.73
2017-01-25T10:13:36.472Z,1020.72
2017-01-25T10:14:46.621Z,1020.72
2017-01-25T10:15:56.773Z,1020.71
2017-01-25T10:17:07.024Z,1020.75
2017-01-25T10:18:16.749Z,1020.77
2017-01-25T10:19:26.898Z,1020.82
2017-01-25T10:20:37.051Z,1020.83
2017-01-25T10:21:46.332Z,1020.81
2017-01-25T10:22:56.541Z,1020.82
2017-01-25T10:24:06.262Z,1020.78
2017-01-25T10:25:15.980Z,1020.73
2017-01-25T10:26:25.730Z,1020.71
2017-01-25T10:27:36.322Z,1020.63
2017-01-25T10:28:46.087Z,1020.63
2017-01-25T10:29:55.364Z,1020.65
2017-01-25T10:31:05.514Z,1020.6
2017-01-25T10:32:15.228Z,1020.6
2017-01-25T10:33:24.503Z,1020.6
2017-01-25T10:34:33.837Z,1020.63
2017-01-25T10:35:43.113Z,1020.64
2017-01-25T10:36:52.839Z,1020.68
2017-01-25T10:38:02.987Z,1020.65
2017-01-25T10:39:13.141Z,1020.63
2017-01-25T10:40:22.906Z,1020.6
2017-01-25T10:41:33.064Z,1020.62
2017-01-25T10:42:42.337Z,1020.61
2017-01-25T10:43:52.047Z,1020.58
2017-01-25T10:45:01.789Z,1020.63
2017-01-25T10:46:11.992Z,1020.6
2017-01-25T10:47:21.709Z,1020.61
2017-01-25T10:48:31.864Z,1020.59
2017-01-25T10:49:41.587Z,1020.58
2017-01-25T10:50:51.316Z,1020.55
2017-01-25T10:52:01.518Z,1020.55
2017-01-25T10:53:11.237Z,1020.58
2017-01-25T10:54:20.516Z,1020.61
2017-01-25T10:55:30.672Z,1020.62
2017-01-25T10:56:41.270Z,1020.57
2017-01-25T10:57:51.475Z,1020.57
2017-01-25T10:59:01.193Z,1020.56
2017-01-25T11:00:11.786Z,1020.53
2017-01-25T11:01:21.070Z,1020.49
2017-01-25T11:02:31.668Z,1020.54
2017-01-25T11:03:41.873Z,1020.54
2017-01-25T11:04:52.027Z,1020.54
2017-01-25T11:06:02.176Z,1020.59
2017-01-25T11:07:12.332Z,1020.6
2017-01-25T11:08:22.058Z,1020.61
2017-01-25T11:09:32.263Z,1020.6
2017-01-25T11:10:41.568Z,1020.63
2017-01-25T11:11:51.750Z,1020.62
2017-01-25T11:13:01.898Z,1020.6
2017-01-25T11:14:12.060Z,1020.57
2017-01-25T11:15:21.820Z,1020.57
2017-01-25T11:16:32.850Z,1020.55
2017-01-25T11:17:42.567Z,1020.59
2017-01-25T11:18:52.284Z,1020.61
2017-01-25T11:20:01.602Z,1020.61
2017-01-25T11:21:11.370Z,1020.66
2017-01-25T11:22:20.652Z,1020.58
2017-01-25T11:23:31.261Z,1020.58
2017-01-25T11:24:40.970Z,1020.58
2017-01-25T11:25:51.136Z,1020.59
2017-01-25T11:27:00.905Z,1020.58
2017-01-25T11:28:11.497Z,1020.53
2017-01-25T11:29:21.211Z,1020.52
2017-01-25T11:30:30.924Z,1020.48
2017-01-25T11:31:40.645Z,1020.49
2017-01-25T11:32:50.858Z,1020.45
2017-01-25T11:34:01.007Z,1020.44
2017-01-25T11:35:11.165Z,1020.4
2017-01-25T11:36:21.314Z,1020.38
2017-01-25T11:37:31.026Z,1020.42
2017-01-25T11:38:41.664Z,1020.44
2017-01-25T11:39:50.949Z,1020.38
2017-01-25T11:41:01.111Z,1020.36
2017-01-25T11:42:10.836Z,1020.32
2017-01-25T11:43:20.985Z,1020.29
2017-01-25T11:44:31.190Z,1020.27
2017-01-25T11:45:41.338Z,1020.28
2017-01-25T11:46:51.056Z,1020.29
2017-01-25T11:48:00.773Z,1020.23
2017-01-25T11:49:11.383Z,1020.17
2017-01-25T11:50:22.029Z,1020.14
2017-01-25T11:51:32.181Z,1020.13
2017-01-25T11:52:42.338Z,1020.12
2017-01-25T11:53:51.619Z,1020.08
2017-01-25T11:55:00.896Z,1020.1
2017-01-25T11:56:10.229Z,1020.09
2017-01-25T11:57:19.514Z,1020.08
2017-01-25T11:58:29.223Z,1020.13
2017-01-25T11:59:39.369Z,1020.08
2017-01-25T12:00:49.085Z,1020.11
2017-01-25T12:01:58.866Z,1020.1
2017-01-25T12:03:08.587Z,1020.1
2017-01-25T12:04:19.181Z,1020.09
2017-01-25T12:05:28.890Z,1020.09
2017-01-25T12:06:38.172Z,1020.07
2017-01-25T12:07:48.377Z,1020.06
2017-01-25T12:08:58.978Z,1020.03
2017-01-25T12:10:09.131Z,1020.02
2017-01-25T12:11:18.844Z,1020.02
2017-01-25T12:12:29.434Z,1019.99
2017-01-25T12:13:39.203Z,1020.02
2017-01-25T12:14:48.915Z,1020.01
2017-01-25T12:15:58.629Z,1019.97
2017-01-25T12:17:07.902Z,1019.95
2017-01-25T12:18:17.619Z,1019.94
2017-01-25T12:19:27.825Z,1019.94
2017-01-25T12:20:37.541Z,1019.98
2017-01-25T12:21:47.703Z,1019.95
2017-01-25T12:22:58.297Z,1019.93
2017-01-25T12:24:08.052Z,1019.92
2017-01-25T12:25:17.382Z,1019.93
2017-01-25T12:26:26.663Z,1019.9
2017-01-25T12:27:36.379Z,1019.9
2017-01-25T12:28:46.566Z,1019.88
2017-01-25T12:29:56.718Z,1019.87
2017-01-25T12:31:06.932Z,1019.87
2017-01-25T12:32:17.084Z,1019.86
2017-01-25T12:33:27.234Z,1019.84
2017-01-25T12:34:37.394Z,1019.82
2017-01-25T12:35:46.667Z,1019.88
2017-01-25T12:36:56.437Z,1019.91
2017-01-25T12:38:06.167Z,1019.85
2017-01-25T12:39:15.451Z,1019.8
2017-01-25T12:40:25.176Z,1019.79
2017-01-25T12:41:34.885Z,1019.86
2017-01-25T12:42:45.090Z,1019.85
2017-01-25T12:43:54.812Z,1019.83
2017-01-25T12:45:04.530Z,1019.84
2017-01-25T12:46:15.122Z,1019.81
2017-01-25T12:47:25.283Z,1019.81
2017-01-25T12:48:34.615Z,1019.82
2017-01-25T12:49:43.898Z,1019.74
2017-01-25T12:50:53.617Z,1019.73
2017-01-25T12:52:03.935Z,1019.73
2017-01-25T12:53:16.720Z,1019.76
2017-01-25T12:54:28.833Z,1019.79
2017-01-25T12:55:40.562Z,1019.75
2017-01-25T12:56:50.725Z,1019.65
2017-01-25T12:58:00.890Z,1019.68
2017-01-25T12:59:11.059Z,1019.65
2017-01-25T13:00:20.388Z,1019.66
2017-01-25T13:01:30.980Z,1019.68
2017-01-25T13:02:41.138Z,1019.66
2017-01-25T13:03:50.419Z,1019.61
2017-01-25T13:05:00.137Z,1019.66
2017-01-25T13:06:10.345Z,1019.63
2017-01-25T13:07:21.059Z,1019.57
2017-01-25T13:08:30.773Z,1019.62
2017-01-25T13:09:40.929Z,1019.58
2017-01-25T13:10:50.642Z,1019.6
2017-01-25T13:12:00.407Z,1019.53
2017-01-25T13:13:10.149Z,1019.51
2017-01-25T13:14:19.894Z,1019.54
2017-01-25T13:15:29.179Z,1019.55
2017-01-25T13:16:38.897Z,1019.54
2017-01-25T13:17:48.670Z,1019.49
2017-01-25T13:18:58.450Z,1019.51
2017-01-25T13:20:08.180Z,1019.47
2017-01-25T13:21:18.345Z,1019.43
2017-01-25T13:22:28.070Z,1019.42
2017-01-25T13:23:37.419Z,1019.47
2017-01-25T13:24:47.132Z,1019.44
2017-01-25T13:25:56.414Z,1019.42
2017-01-25T13:27:07.011Z,1019.37
2017-01-25T13:28:16.735Z,1019.34
2017-01-25T13:29:26.510Z,1019.32
2017-01-25T13:30:37.102Z,1019.3
2017-01-25T13:31:47.700Z,1019.23
2017-01-25T13:32:58.298Z,1019.25
2017-01-25T13:34:08.890Z,1019.24
2017-01-25T13:35:19.531Z,1019.28
2017-01-25T13:36:28.813Z,1019.27
2017-01-25T13:37:39.406Z,1019.3
2017-01-25T13:38:50.004Z,1019.31
2017-01-25T13:39:59.735Z,1019.29
2017-01-25T13:41:09.502Z,1019.3
2017-01-25T13:42:19.660Z,1019.36
2017-01-25T13:43:29.376Z,1019.36
2017-01-25T13:44:39.098Z,1019.35
2017-01-25T13:45:49.259Z,1019.36
2017-01-25T13:46:59.032Z,1019.39
2017-01-25T13:48:09.189Z,1019.41
2017-01-25T13:49:18.914Z,1019.37
2017-01-25T13:50:28.216Z,1019.39
2017-01-25T13:51:37.938Z,1019.45
2017-01-25T13:52:48.591Z,1019.45
2017-01-25T13:53:59.192Z,1019.49
2017-01-25T13:55:09.344Z,1019.49
2017-01-25T13:56:19.510Z,1019.49
2017-01-25T13:57:29.663Z,1019.49
2017-01-25T13:58:39.584Z,1019.51
2017-01-25T13:59:49.746Z,1019.53
2017-01-25T14:00:59.023Z,1019.53
2017-01-25T14:02:08.305Z,1019.49
2017-01-25T14:03:18.461Z,1019.5
2017-01-25T14:04:27.795Z,1019.48
2017-01-25T14:05:37.075Z,1019.53
2017-01-25T14:06:46.378Z,1019.56
2017-01-25T14:07:56.577Z,1019.59
2017-01-25T14:09:06.307Z,1019.54